KIRK/IRK METAR and TAF weather

Enter ICAO airport designator
Station Type Date Time Source
KIRK METAR 2020/02/24 06:55 UTC NOAA

KIRK 240655Z AUTO 05008KT 10SM CLR 06/00 A2989 RMK AO2 SLP127 T00610000


Station Type Date Time Source
KIRK Decoded METAR 2020/02/24 06:55 UTC NOAA

KIRKSVILLE REGIONAL AIRPORT , MO, United States (KIRK) 40-06N 092-33W 293M
Feb 24, 2020 - 01:55 AM EST / 2020.02.24 0655 UTC
Wind: from the NE (050 degrees) at 9 MPH (8 KT):0
Visibility: 10 mile(s):0
Sky conditions: clear
Temperature: 43.0 F (6.1 C)
Dew Point: 32.0 F (0.0 C)
Relative Humidity: 64%
Pressure (altimeter): 29.89 in. Hg (1012 hPa)
ob: KIRK 240655Z AUTO 05008KT 10SM CLR 06/00 A2989 RMK AO2 SLP127 T00610000
cycle: 7

Station Type Date Time Source
KIRK TAF UTC NOAA

Error!

Example: see airport list